createdAt,value
2019-02-04T00:02:06.276Z,97889.73
2019-02-04T00:04:36.053Z,97896.91
2019-02-04T00:07:05.823Z,97898.14
2019-02-04T00:09:36.593Z,97895.56
2019-02-04T00:12:06.366Z,97911.39
2019-02-04T00:14:36.179Z,97914.37
2019-02-04T00:17:05.983Z,97924.26
2019-02-04T00:19:35.717Z,97928.09
2019-02-04T00:22:06.472Z,97933.13
2019-02-04T00:24:36.230Z,97941.73
2019-02-04T00:27:06.001Z,97952.86
2019-02-04T00:29:35.777Z,97961.11
2019-02-04T00:32:05.520Z,97969.79
2019-02-04T00:34:35.595Z,97965.93
2019-02-04T00:37:05.960Z,97979.70
2019-02-04T00:39:35.722Z,97983.58
2019-02-04T00:42:05.375Z,97991.78
2019-02-04T00:44:35.121Z,97996.92
2019-02-04T00:47:04.998Z,97996.45
2019-02-04T00:49:34.662Z,98005.13
2019-02-04T00:52:04.395Z,98004.27
2019-02-04T00:54:34.145Z,98007.36
2019-02-04T00:57:03.860Z,98005.28
2019-02-04T00:59:33.663Z,98014.83
2019-02-04T01:02:03.445Z,98023.02
2019-02-04T01:04:34.437Z,98024.80
2019-02-04T01:07:04.624Z,98029.93
2019-02-04T01:09:34.314Z,98029.27
2019-02-04T01:12:04.182Z,98040.13
2019-02-04T01:14:34.027Z,98047.02
2019-02-04T01:17:03.925Z,98056.56
2019-02-04T01:19:33.643Z,98052.72
2019-02-04T01:22:03.406Z,98057.80
2019-02-04T01:24:33.294Z,98064.28
2019-02-04T01:27:03.014Z,98062.12
2019-02-04T01:29:32.786Z,98068.66
2019-02-04T01:32:03.423Z,98072.11
2019-02-04T01:34:33.110Z,98066.91
2019-02-04T01:37:02.898Z,98070.86
2019-02-04T01:39:32.700Z,98071.67
2019-02-04T01:42:02.520Z,98075.05
2019-02-04T01:44:32.282Z,98073.41
2019-02-04T01:47:02.065Z,98071.29
2019-02-04T01:49:31.818Z,98077.33
2019-02-04T01:52:01.447Z,98082.56
2019-02-04T01:54:31.228Z,98087.80
2019-02-04T01:57:01.034Z,98088.06
2019-02-04T01:59:31.298Z,98091.41
2019-02-04T02:02:01.074Z,98100.41
2019-02-04T02:04:30.846Z,98101.50
2019-02-04T02:07:00.528Z,98104.95
2019-02-04T02:09:30.284Z,98116.11
2019-02-04T02:12:00.089Z,98109.45
2019-02-04T02:14:29.835Z,98110.26
2019-02-04T02:17:00.077Z,98120.55
2019-02-04T02:19:29.816Z,98117.03
2019-02-04T02:21:59.698Z,98113.99
2019-02-04T02:24:29.422Z,98117.75
2019-02-04T02:26:59.383Z,98122.92
2019-02-04T02:29:29.147Z,98123.34
2019-02-04T02:31:58.941Z,98118.03
2019-02-04T02:34:28.699Z,98124.80
2019-02-04T02:36:58.465Z,98120.03
2019-02-04T02:39:28.726Z,98129.44
2019-02-04T02:41:58.463Z,98122.92
2019-02-04T02:44:28.256Z,98128.94
2019-02-04T02:46:58.003Z,98128.49
2019-02-04T02:49:27.755Z,98139.63
2019-02-04T02:51:57.453Z,98146.84
2019-02-04T02:54:27.473Z,98150.20
2019-02-04T02:56:57.264Z,98153.61
2019-02-04T02:59:27.028Z,98158.30
2019-02-04T03:01:56.789Z,98163.81
2019-02-04T03:04:26.934Z,98163.22
2019-02-04T03:06:56.704Z,98167.86
2019-02-04T03:09:26.655Z,98162.66
2019-02-04T03:11:56.487Z,98170.30
2019-02-04T03:14:26.272Z,98179.26
2019-02-04T03:16:56.054Z,98183.38
2019-02-04T03:19:25.807Z,98191.33
2019-02-04T03:21:55.617Z,98196.81
2019-02-04T03:24:25.553Z,98191.98
2019-02-04T03:26:55.344Z,98198.43
2019-02-04T03:29:25.152Z,98199.88
2019-02-04T03:31:54.942Z,98201.52
2019-02-04T03:34:25.088Z,98197.38
2019-02-04T03:36:54.977Z,98195.78
2019-02-04T03:39:24.708Z,98204.48
2019-02-04T03:41:55.089Z,98207.30
2019-02-04T03:44:24.880Z,98207.30
2019-02-04T03:46:54.620Z,98219.84
2019-02-04T03:49:24.632Z,98220.55
2019-02-04T03:51:54.966Z,98217.23
2019-02-04T03:54:24.718Z,98217.23
2019-02-04T03:56:54.444Z,98221.02
2019-02-04T03:59:24.255Z,98218.98
2019-02-04T04:01:54.117Z,98222.78
2019-02-04T04:04:23.847Z,98222.84
2019-02-04T04:06:53.551Z,98244.06
2019-02-04T04:09:23.304Z,98244.06
2019-02-04T04:11:53.105Z,98257.48
2019-02-04T04:14:22.887Z,98254.41
2019-02-04T04:16:53.023Z,98256.78
2019-02-04T04:19:22.855Z,98262.83
2019-02-04T04:21:52.576Z,98262.52
2019-02-04T04:24:22.333Z,98264.94
2019-02-04T04:26:52.126Z,98269.75
2019-02-04T04:29:21.874Z,98275.63
2019-02-04T04:31:51.955Z,98283.66
2019-02-04T04:34:21.709Z,98292.38
2019-02-04T04:36:51.474Z,98299.51
2019-02-04T04:39:21.270Z,98295.64
2019-02-04T04:41:51.020Z,98307.46
2019-02-04T04:44:21.013Z,98307.64
2019-02-04T04:46:50.803Z,98310.25
2019-02-04T04:49:20.576Z,98306.44
2019-02-04T04:51:50.286Z,98321.93
2019-02-04T04:54:20.158Z,98323.75
2019-02-04T04:56:49.949Z,98323.75
2019-02-04T04:59:19.928Z,98327.80
2019-02-04T05:01:49.808Z,98328.38
2019-02-04T05:04:19.506Z,98337.03
2019-02-04T05:06:49.305Z,98346.41
2019-02-04T05:09:19.026Z,98348.59
2019-02-04T05:11:48.788Z,98353.17
2019-02-04T05:14:18.577Z,98359.91
2019-02-04T05:16:48.204Z,98361.73
2019-02-04T05:19:18.063Z,98369.23
2019-02-04T05:21:47.818Z,98372.50
2019-02-04T05:24:17.596Z,98380.56
2019-02-04T05:26:47.716Z,98378.31
2019-02-04T05:29:18.092Z,98383.27
2019-02-04T05:31:47.896Z,98391.18
2019-02-04T05:34:17.607Z,98384.14
2019-02-04T05:36:47.387Z,98394.33
2019-02-04T05:39:17.226Z,98400.74
2019-02-04T05:41:47.045Z,98413.05
2019-02-04T05:44:16.741Z,98413.05
2019-02-04T05:46:53.537Z,98256.91
2019-02-04T05:49:23.782Z,98423.24
2019-02-04T05:51:55.108Z,98421.95
2019-02-04T05:54:25.086Z,98424.05
2019-02-04T05:56:54.935Z,98423.33
2019-02-04T05:59:24.754Z,98433.61
2019-02-04T06:01:54.471Z,98435.80
2019-02-04T06:04:24.261Z,98428.09
2019-02-04T06:06:54.340Z,98440.51
2019-02-04T06:09:24.901Z,98444.47
2019-02-04T06:11:54.650Z,98449.62
2019-02-04T06:14:24.348Z,98460.19
2019-02-04T06:16:54.140Z,98464.19
2019-02-04T06:19:23.899Z,98462.57
2019-02-04T06:21:53.729Z,98463.91
2019-02-04T06:24:23.585Z,98468.41
2019-02-04T06:26:53.368Z,98483.81
2019-02-04T06:29:22.999Z,98488.55
2019-02-04T06:31:52.894Z,98495.20
2019-02-04T06:34:22.793Z,98389.98
2019-02-04T06:36:52.384Z,98501.70
2019-02-04T06:39:22.246Z,98511.35
2019-02-04T06:41:52.113Z,98515.13
2019-02-04T06:44:21.891Z,98521.22
2019-02-04T06:46:51.734Z,98535.13
2019-02-04T06:49:21.486Z,98538.48
2019-02-04T06:51:51.253Z,98547.88
2019-02-04T06:54:21.075Z,98550.75
2019-02-04T06:56:50.735Z,98558.63
2019-02-04T06:59:20.518Z,98569.66
2019-02-04T07:01:50.457Z,98568.86
2019-02-04T07:04:20.263Z,98572.92
2019-02-04T07:06:50.048Z,98582.04
2019-02-04T07:09:19.832Z,98584.98
2019-02-04T07:11:49.668Z,98589.80
2019-02-04T07:14:19.467Z,98599.50
2019-02-04T07:16:49.771Z,98601.58
2019-02-04T07:19:24.345Z,98608.95
2019-02-04T07:21:51.035Z,98619.20
2019-02-04T07:24:20.833Z,98620.59
2019-02-04T07:26:52.433Z,98627.80
2019-02-04T07:29:22.227Z,98629.98
2019-02-04T07:31:53.502Z,98636.31
2019-02-04T07:34:23.296Z,98640.83
2019-02-04T07:36:53.076Z,98641.95
2019-02-04T07:39:22.787Z,98648.18
2019-02-04T07:41:53.143Z,98652.16
2019-02-04T07:44:23.204Z,98651.36
2019-02-04T07:46:52.954Z,98656.91
2019-02-04T07:49:22.801Z,98668.30
2019-02-04T07:51:52.582Z,98675.31
2019-02-04T07:54:22.353Z,98675.33
2019-02-04T07:56:52.073Z,98684.00
2019-02-04T07:59:21.804Z,98682.84
2019-02-04T08:01:51.609Z,98682.66
2019-02-04T08:04:21.415Z,98679.25
2019-02-04T08:06:51.224Z,98677.42
2019-02-04T08:09:20.978Z,98682.03
2019-02-04T08:11:51.358Z,98692.47
2019-02-04T08:14:21.123Z,98683.00
2019-02-04T08:16:50.931Z,98690.42
2019-02-04T08:19:20.707Z,98695.69
2019-02-04T08:21:50.544Z,98702.83
2019-02-04T08:24:20.358Z,98695.27
2019-02-04T08:26:50.285Z,98702.56
2019-02-04T08:29:20.008Z,98706.69
2019-02-04T08:31:49.773Z,98709.73
2019-02-04T08:34:19.552Z,98719.50
2019-02-04T08:36:49.107Z,98716.59
2019-02-04T08:39:18.867Z,98724.56
2019-02-04T08:41:48.923Z,98728.14
2019-02-04T08:44:18.662Z,98737.35
2019-02-04T08:46:48.431Z,98735.70
2019-02-04T08:49:18.245Z,98741.34
2019-02-04T08:51:48.336Z,98740.09
2019-02-04T08:54:18.136Z,98737.06
2019-02-04T08:56:48.076Z,98732.66
2019-02-04T08:59:18.646Z,98730.11
2019-02-04T09:01:48.406Z,98728.41
2019-02-04T09:04:18.121Z,98727.56
2019-02-04T09:06:47.920Z,98727.59
2019-02-04T09:09:17.723Z,98721.95
2019-02-04T09:11:47.757Z,98724.57
2019-02-04T09:14:17.577Z,98728.47
2019-02-04T09:16:47.321Z,98736.73
2019-02-04T09:19:20.143Z,98727.16
2019-02-04T09:21:50.785Z,98730.66
2019-02-04T09:24:22.084Z,98731.94
2019-02-04T09:26:51.916Z,98728.48
2019-02-04T09:29:21.694Z,98740.66
2019-02-04T09:31:51.372Z,98741.47
2019-02-04T09:34:21.158Z,98746.19
2019-02-04T09:36:50.951Z,98748.41
2019-02-04T09:39:24.312Z,98751.90
2019-02-04T09:41:54.095Z,98749.73
2019-02-04T09:44:23.914Z,98752.38
2019-02-04T09:46:53.654Z,98753.22
2019-02-04T09:49:23.380Z,98754.09
2019-02-04T09:51:53.185Z,98758.86
2019-02-04T09:54:24.644Z,98751.41
2019-02-04T09:56:54.430Z,98757.50
2019-02-04T09:59:24.208Z,98759.30
2019-02-04T10:01:54.036Z,98753.66
2019-02-04T10:04:23.786Z,98756.73
2019-02-04T10:06:55.488Z,98748.91
2019-02-04T10:09:25.416Z,98753.69
2019-02-04T10:11:57.224Z,98752.84
2019-02-04T10:14:27.022Z,98748.06
2019-02-04T10:16:56.818Z,98738.05
2019-02-04T10:19:26.516Z,98741.11
2019-02-04T10:21:56.342Z,98744.16
2019-02-04T10:24:26.157Z,98742.84
2019-02-04T10:26:55.955Z,98738.05
2019-02-04T10:29:26.416Z,98741.92
2019-02-04T10:31:56.235Z,98742.35
2019-02-04T10:34:26.645Z,98738.87
2019-02-04T10:36:57.007Z,98733.23
2019-02-04T10:39:26.785Z,98724.50
2019-02-04T10:41:56.484Z,98727.16
2019-02-04T10:44:26.235Z,98723.66
2019-02-04T10:46:56.245Z,98725.40
2019-02-04T10:49:26.057Z,98720.57
2019-02-04T10:51:55.940Z,98720.16
2019-02-04T10:54:25.749Z,98724.52
2019-02-04T10:56:55.669Z,98726.25
2019-02-04T10:59:25.539Z,98716.69
2019-02-04T11:01:56.615Z,98725.35
2019-02-04T11:04:26.444Z,98716.64
2019-02-04T11:06:56.258Z,98717.91
2019-02-04T11:09:26.174Z,98705.33
2019-02-04T11:11:55.920Z,98701.34
2019-02-04T11:14:25.768Z,98697.87
2019-02-04T11:16:55.504Z,98707.48
2019-02-04T11:19:25.385Z,98701.80
2019-02-04T11:21:55.198Z,98703.02
2019-02-04T11:24:24.922Z,98688.70
2019-02-04T11:26:54.774Z,98675.72
2019-02-04T11:29:25.084Z,98691.82
2019-02-04T11:31:54.943Z,98689.60
2019-02-04T11:34:24.754Z,98689.19
2019-02-04T11:36:56.023Z,98690.58
2019-02-04T11:39:25.884Z,98690.57
2019-02-04T11:41:55.616Z,98695.34
2019-02-04T11:44:25.417Z,98699.66
2019-02-04T11:46:55.232Z,98694.88
2019-02-04T11:49:25.067Z,98701.78
2019-02-04T11:51:54.871Z,98691.76
2019-02-04T11:54:24.645Z,98695.28
2019-02-04T11:56:54.655Z,98692.25
2019-02-04T11:59:24.438Z,98692.72
2019-02-04T12:01:57.264Z,98690.11
2019-02-04T12:04:27.006Z,98697.45
2019-02-04T12:06:56.996Z,98689.64
2019-02-04T12:09:26.745Z,98686.17
2019-02-04T12:11:56.680Z,98680.97
2019-02-04T12:14:26.419Z,98681.41
2019-02-04T12:16:59.051Z,98676.64
2019-02-04T12:19:27.604Z,98677.02
2019-02-04T12:21:57.397Z,98671.80
2019-02-04T12:24:27.641Z,98674.41
2019-02-04T12:26:57.377Z,98670.95
2019-02-04T12:29:27.152Z,98670.04
2019-02-04T12:31:56.924Z,98663.09
2019-02-04T12:34:26.733Z,98661.78
2019-02-04T12:36:56.471Z,98654.88
2019-02-04T12:39:26.729Z,98653.22
2019-02-04T12:41:56.903Z,98644.50
2019-02-04T12:44:26.651Z,98645.79
2019-02-04T12:46:56.446Z,98635.78
2019-02-04T12:49:26.196Z,98649.68
2019-02-04T12:51:56.013Z,98641.45
2019-02-04T12:54:26.684Z,98638.42
2019-02-04T12:56:56.768Z,98630.55
2019-02-04T12:59:26.579Z,98630.97
2019-02-04T13:01:56.405Z,98630.98
2019-02-04T13:04:26.168Z,98627.53
2019-02-04T13:06:56.394Z,98634.48
2019-02-04T13:09:26.231Z,98629.64
2019-02-04T13:11:55.991Z,98624.00
2019-02-04T13:14:25.784Z,98625.71
2019-02-04T13:16:55.536Z,98620.06
2019-02-04T13:19:25.522Z,98622.23
2019-02-04T13:21:55.477Z,98628.70
2019-02-04T13:24:25.321Z,98626.12
2019-02-04T13:26:55.140Z,98623.08
2019-02-04T13:29:24.885Z,98626.95
2019-02-04T13:31:54.690Z,98626.92
2019-02-04T13:34:24.435Z,98623.45
2019-02-04T13:36:54.176Z,98629.19
2019-02-04T13:39:23.983Z,98626.56
2019-02-04T13:41:53.777Z,98626.05
2019-02-04T13:44:23.573Z,98630.88
2019-02-04T13:46:53.331Z,98628.30
2019-02-04T13:49:23.589Z,98629.61
2019-02-04T13:51:57.618Z,98624.01
2019-02-04T13:54:24.868Z,98620.55
2019-02-04T13:56:54.624Z,98617.97
2019-02-04T13:59:24.429Z,98621.05
2019-02-04T14:01:54.210Z,98618.88
2019-02-04T14:04:23.978Z,98619.75
2019-02-04T14:06:53.759Z,98617.15
2019-02-04T14:09:23.511Z,98618.47
2019-02-04T14:11:53.324Z,98616.70
2019-02-04T14:14:23.077Z,98625.83
2019-02-04T14:16:53.327Z,98621.91
2019-02-04T14:19:23.145Z,98622.35
2019-02-04T14:21:52.950Z,98623.22
2019-02-04T14:24:22.762Z,98620.59
2019-02-04T14:26:52.550Z,98620.56
2019-02-04T14:29:22.747Z,98627.93
2019-02-04T14:31:52.644Z,98623.17
2019-02-04T14:34:22.490Z,98617.95
2019-02-04T14:36:52.300Z,98627.92
2019-02-04T14:39:22.189Z,98623.61
2019-02-04T14:41:51.967Z,98618.38
2019-02-04T14:44:23.053Z,98621.80
2019-02-04T14:47:01.859Z,98627.02
2019-02-04T14:49:40.984Z,98631.34
2019-02-04T14:52:31.969Z,98649.16
2019-02-04T14:55:27.659Z,98644.87
2019-02-04T14:58:13.082Z,98646.12
2019-02-04T15:01:13.131Z,98646.88
2019-02-04T15:03:55.302Z,98645.55
2019-02-04T15:06:31.063Z,98651.13
2019-02-04T15:09:16.077Z,98650.66
2019-02-04T15:11:51.623Z,98657.56
2019-02-04T15:14:30.157Z,98659.22
2019-02-04T15:17:05.581Z,98654.84
2019-02-04T15:19:45.312Z,98657.44
2019-02-04T15:22:18.164Z,98675.48
2019-02-04T15:25:09.098Z,98678.08
2019-02-04T15:27:54.011Z,98670.62
2019-02-04T15:30:38.995Z,98673.55
2019-02-04T15:33:23.905Z,98678.30
2019-02-04T15:36:11.723Z,98672.99
2019-02-04T15:38:44.599Z,98682.46
2019-02-04T15:41:35.320Z,98682.41
2019-02-04T15:44:08.269Z,98678.50
2019-02-04T15:46:41.100Z,98676.28
2019-02-04T15:49:36.735Z,98682.71
2019-02-04T15:52:06.533Z,98681.78
2019-02-04T15:54:36.280Z,98686.54
2019-02-04T15:57:06.293Z,98682.94
2019-02-04T15:59:36.391Z,98687.63
2019-02-04T16:02:06.421Z,98692.30
2019-02-04T16:04:36.587Z,98693.53
2019-02-04T16:07:07.884Z,98698.74
2019-02-04T16:09:37.697Z,98703.86
2019-02-04T16:12:07.541Z,98711.19
2019-02-04T16:14:37.607Z,98713.70
2019-02-04T16:17:08.105Z,98712.33
2019-02-04T16:19:38.202Z,98717.86
2019-02-04T16:22:07.954Z,98720.75
2019-02-04T16:24:37.798Z,98724.53
2019-02-04T16:27:07.599Z,98730.93
2019-02-04T16:29:37.376Z,98730.48
2019-02-04T16:32:07.703Z,98738.16
2019-02-04T16:34:37.451Z,98742.83
2019-02-04T16:37:07.213Z,98740.23
2019-02-04T16:39:37.032Z,98745.36
2019-02-04T16:42:07.412Z,98744.91
2019-02-04T16:44:37.401Z,98753.89
2019-02-04T16:47:07.177Z,98758.13
2019-02-04T16:49:37.860Z,98764.16
2019-02-04T16:52:07.626Z,98772.30
2019-02-04T16:54:37.607Z,98773.06
2019-02-04T16:57:07.397Z,98777.81
2019-02-04T16:59:37.022Z,98777.78
2019-02-04T17:02:07.006Z,98781.98
2019-02-04T17:04:36.767Z,98784.58
2019-02-04T17:07:06.546Z,98787.70
2019-02-04T17:09:36.307Z,98798.39
2019-02-04T17:12:06.127Z,98801.66
2019-02-04T17:14:36.933Z,98796.00
2019-02-04T17:17:06.753Z,98802.39
2019-02-04T17:19:36.533Z,98801.85
2019-02-04T17:22:06.432Z,98808.76
2019-02-04T17:24:36.423Z,98810.36
2019-02-04T17:27:07.873Z,98814.67
2019-02-04T17:29:37.655Z,98813.84
2019-02-04T17:32:07.508Z,98813.94
2019-02-04T17:34:37.352Z,98817.63
2019-02-04T17:37:07.187Z,98814.11
2019-02-04T17:39:36.958Z,98810.75
2019-02-04T17:42:06.693Z,98813.95
2019-02-04T17:44:36.414Z,98821.21
2019-02-04T17:47:06.187Z,98823.66
2019-02-04T17:49:35.911Z,98832.72
2019-02-04T17:52:05.796Z,98838.39
2019-02-04T17:54:35.496Z,98839.38
2019-02-04T17:57:06.094Z,98839.88
2019-02-04T17:59:36.006Z,98844.25
2019-02-04T18:02:06.167Z,98839.55
2019-02-04T18:04:35.920Z,98840.45
2019-02-04T18:07:06.047Z,98837.45
2019-02-04T18:09:35.857Z,98846.16
2019-02-04T18:12:05.584Z,98844.36
2019-02-04T18:14:35.353Z,98849.10
2019-02-04T18:17:05.194Z,98852.99
2019-02-04T18:19:34.976Z,98854.25
2019-02-04T18:22:04.826Z,98854.69
2019-02-04T18:24:34.613Z,98858.98
2019-02-04T18:27:04.485Z,98864.62
2019-02-04T18:29:34.219Z,98867.56
2019-02-04T18:32:04.172Z,98869.28
2019-02-04T18:34:33.917Z,98873.13
2019-02-04T18:37:03.675Z,98875.65
2019-02-04T18:39:33.441Z,98866.55
2019-02-04T18:42:03.218Z,98870.00
2019-02-04T18:44:33.368Z,98867.83
2019-02-04T18:47:03.568Z,98866.05
2019-02-04T18:49:33.374Z,98872.61
2019-02-04T18:52:03.287Z,98864.98
2019-02-04T18:54:33.447Z,98866.53
2019-02-04T18:57:03.278Z,98861.73
2019-02-04T18:59:34.700Z,98857.69
2019-02-04T19:02:05.108Z,98859.81
2019-02-04T19:04:36.445Z,98861.03
2019-02-04T19:07:08.231Z,98864.02
2019-02-04T19:09:38.009Z,98861.44
2019-02-04T19:12:07.785Z,98858.77
2019-02-04T19:14:37.604Z,98862.53
2019-02-04T19:17:07.359Z,98865.09
2019-02-04T19:19:37.583Z,98866.24
2019-02-04T19:22:07.386Z,98863.58
2019-02-04T19:24:40.032Z,98864.00
2019-02-04T19:27:10.077Z,98861.20
2019-02-04T19:29:39.865Z,98860.78
2019-02-04T19:32:09.650Z,98862.52
2019-02-04T19:34:39.436Z,98860.67
2019-02-04T19:37:09.206Z,98855.97
2019-02-04T19:39:38.966Z,98858.00
2019-02-04T19:42:09.042Z,98863.53
2019-02-04T19:44:38.884Z,98871.22
2019-02-04T19:47:08.522Z,98873.83
2019-02-04T19:49:38.293Z,98868.27
2019-02-04T19:52:08.185Z,98870.45
2019-02-04T19:54:39.060Z,98873.83
2019-02-04T19:57:08.872Z,98876.48
2019-02-04T19:59:38.736Z,98865.75
2019-02-04T20:02:08.499Z,98871.27
2019-02-04T20:04:38.292Z,98865.37
2019-02-04T20:07:08.289Z,98865.16
2019-02-04T20:09:38.065Z,98870.22
2019-02-04T20:12:07.908Z,98858.48
2019-02-04T20:14:39.106Z,98864.87
2019-02-04T20:17:08.875Z,98857.83
2019-02-04T20:19:38.645Z,98857.77
2019-02-04T20:22:10.700Z,98863.34
2019-02-04T20:24:40.861Z,98868.38
2019-02-04T20:27:10.723Z,98866.16
2019-02-04T20:29:40.509Z,98863.55
2019-02-04T20:32:10.292Z,98862.55
2019-02-04T20:34:40.059Z,98864.63
2019-02-04T20:37:09.887Z,98874.05
2019-02-04T20:39:39.827Z,98869.32
2019-02-04T20:42:09.642Z,98873.98
2019-02-04T20:44:39.469Z,98875.67
2019-02-04T20:47:09.235Z,98875.56
2019-02-04T20:49:38.989Z,98883.41
2019-02-04T20:52:10.344Z,98881.67
2019-02-04T20:54:44.921Z,98884.20
2019-02-04T20:57:11.626Z,98889.77
2019-02-04T20:59:41.442Z,98888.84
2019-02-04T21:02:11.982Z,98883.66
2019-02-04T21:04:41.867Z,98884.02
2019-02-04T21:07:11.869Z,98890.05
2019-02-04T21:09:41.620Z,98880.95
2019-02-04T21:12:11.457Z,98888.18
2019-02-04T21:14:41.251Z,98884.69
2019-02-04T21:17:11.032Z,98886.41
2019-02-04T21:19:40.800Z,98880.51
2019-02-04T21:22:10.846Z,98883.37
2019-02-04T21:24:40.684Z,98878.53
2019-02-04T21:27:10.486Z,98884.36
2019-02-04T21:29:40.358Z,98886.41
2019-02-04T21:32:10.201Z,98886.89
2019-02-04T21:34:40.003Z,98876.52
2019-02-04T21:37:09.761Z,98876.55
2019-02-04T21:39:50.144Z,98861.09
2019-02-04T21:42:20.023Z,98871.04
2019-02-04T21:44:50.281Z,98875.52
2019-02-04T21:47:20.522Z,98863.13
2019-02-04T21:49:50.278Z,98865.63
2019-02-04T21:52:20.051Z,98861.14
2019-02-04T21:54:49.789Z,98859.37
2019-02-04T21:57:19.644Z,98855.34
2019-02-04T21:59:49.405Z,98864.27
2019-02-04T22:02:19.334Z,98857.20
2019-02-04T22:04:49.163Z,98855.81
2019-02-04T22:07:18.963Z,98851.48
2019-02-04T22:09:48.821Z,98857.89
2019-02-04T22:12:18.817Z,98859.54
2019-02-04T22:14:49.221Z,98852.05
2019-02-04T22:17:19.886Z,98860.30
2019-02-04T22:19:49.653Z,98858.45
2019-02-04T22:22:21.047Z,98854.95
2019-02-04T22:24:50.823Z,98855.78
2019-02-04T22:27:20.942Z,98852.08
2019-02-04T22:29:52.919Z,98859.27
2019-02-04T22:32:24.213Z,98859.56
2019-02-04T22:34:54.057Z,98863.92
2019-02-04T22:37:23.832Z,98857.71
2019-02-04T22:39:53.625Z,98862.31
2019-02-04T22:42:23.372Z,98861.48
2019-02-04T22:44:53.141Z,98866.98
2019-02-04T22:47:22.967Z,98873.59
2019-02-04T22:49:52.748Z,98876.90
2019-02-04T22:52:22.434Z,98872.71
2019-02-04T22:54:52.184Z,98870.63
2019-02-04T22:57:21.964Z,98875.16
2019-02-04T22:59:52.169Z,98868.10
2019-02-04T23:02:21.944Z,98874.28
2019-02-04T23:04:51.726Z,98866.95
2019-02-04T23:07:21.493Z,98864.54
2019-02-04T23:09:51.077Z,98864.44
2019-02-04T23:12:20.847Z,98854.50
2019-02-04T23:14:50.639Z,98854.50
2019-02-04T23:17:20.443Z,98859.21
2019-02-04T23:19:50.195Z,98858.86
2019-02-04T23:22:20.778Z,98863.36
2019-02-04T23:24:50.567Z,98866.05
2019-02-04T23:27:20.726Z,98862.14
2019-02-04T23:29:50.488Z,98853.97
2019-02-04T23:32:20.304Z,98854.59
2019-02-04T23:34:50.166Z,98854.59
2019-02-04T23:37:20.403Z,98855.08
2019-02-04T23:39:50.579Z,98852.95
2019-02-04T23:42:20.363Z,98848.82
2019-02-04T23:44:50.128Z,98835.81
2019-02-04T23:47:19.923Z,98840.91
2019-02-04T23:49:49.709Z,98837.94
2019-02-04T23:52:19.492Z,98839.27
2019-02-04T23:54:49.305Z,98846.59
2019-02-04T23:57:19.198Z,98843.20
2019-02-04T23:59:48.964Z,98840.55
